< < Back
Terminal Aerodrome Forecast


Current Version              Previous Versions:   1  2  3  4  5  6  7  8  9  

Terminal Aerodrome Forecast

927
FTUS42 KGSP 302134 AAB
TAFGSP
TAF AMD
KGSP 302134Z 3022/0118 14008KT P6SM VCTS BKN050CB
      TEMPO 3022/0102 VRB15G25KT 4SM TSRA BKN030CB
     FM010400 25003KT P6SM BKN060
     FM010900 00000KT 5SM BR SCT005
     FM011400 24006KT P6SM SCT040=



Latest METAR

019
SAUS70 KWBC 011100 RRX
MTRGSP
METAR KGSP 011053Z 18006KT 10SM BKN016 OVC031 22/20 A3001 RMK AO2 SLP148
T02220200


USA.gov is the U.S. government's official web portal to all federal, state and local government web resources and services.